createdAt,value
2024-01-15T00:01:29.958Z,16.10
2024-01-15T00:04:01.523Z,15.50
2024-01-15T00:06:34.243Z,15.70
2024-01-15T00:09:05.310Z,15.10
2024-01-15T00:14:05.629Z,11.40
2024-01-15T00:16:36.561Z,11.70
2024-01-15T00:19:07.685Z,11.60
2024-01-15T00:21:38.816Z,10.50
2024-01-15T00:26:39.227Z,10.00
2024-01-15T00:29:10.527Z,10.30
2024-01-15T00:31:41.725Z,12.20
2024-01-15T00:34:12.784Z,12.70
2024-01-15T00:36:43.872Z,12.40
2024-01-15T00:39:15.022Z,10.90
2024-01-15T00:41:45.987Z,12.80
2024-01-15T00:44:17.402Z,12.60
2024-01-15T00:46:49.282Z,11.60
2024-01-15T00:49:20.476Z,10.60
2024-01-15T00:51:51.698Z,12.80
2024-01-15T00:54:22.680Z,10.20
2024-01-15T00:56:53.670Z,9.10
2024-01-15T00:59:25.044Z,10.70
2024-01-15T01:01:55.940Z,17.00
2024-01-15T01:04:26.985Z,16.90
2024-01-15T01:09:30.411Z,12.70
2024-01-15T01:12:01.480Z,13.30
2024-01-15T01:17:01.747Z,11.00
2024-01-15T01:19:32.922Z,11.90
2024-01-15T01:22:03.985Z,12.50
2024-01-15T01:24:35.921Z,11.90
2024-01-15T01:27:07.066Z,11.10
2024-01-15T01:29:38.032Z,10.90
2024-01-15T01:32:09.363Z,12.00
2024-01-15T01:34:44.680Z,11.10
2024-01-15T01:37:16.759Z,9.70
2024-01-15T01:39:48.298Z,10.70
2024-01-15T01:42:19.607Z,10.80
2024-01-15T01:44:50.545Z,9.00
2024-01-15T01:47:21.844Z,6.80
2024-01-15T01:49:52.878Z,7.00
2024-01-15T01:52:24.414Z,8.10
2024-01-15T01:54:56.513Z,9.00
2024-01-15T01:57:27.831Z,9.90
2024-01-15T02:00:00.279Z,7.20
2024-01-15T02:02:31.361Z,8.20
2024-01-15T02:07:31.792Z,7.20
2024-01-15T02:10:03.100Z,8.60
2024-01-15T02:12:34.522Z,10.60
2024-01-15T02:15:06.227Z,9.60
2024-01-15T02:17:37.169Z,9.00
2024-01-15T02:20:10.278Z,8.80
2024-01-15T02:22:41.320Z,7.90
2024-01-15T02:27:41.761Z,18.40
2024-01-15T02:32:43.585Z,12.80
2024-01-15T02:35:14.779Z,13.90
2024-01-15T02:40:15.799Z,12.30
2024-01-15T02:42:46.735Z,11.80
2024-01-15T02:45:17.896Z,12.10
2024-01-15T02:47:48.885Z,12.50
2024-01-15T02:50:20.397Z,13.80
2024-01-15T02:52:51.575Z,11.20
2024-01-15T02:55:22.633Z,10.90
2024-01-15T03:00:23.072Z,9.40
2024-01-15T03:02:54.713Z,10.10
2024-01-15T03:05:25.685Z,10.60
2024-01-15T03:10:25.904Z,10.20
2024-01-15T03:15:26.340Z,9.30
2024-01-15T03:20:26.652Z,9.30
2024-01-15T03:25:26.944Z,9.30
2024-01-15T03:27:57.982Z,8.70
2024-01-15T03:32:58.475Z,8.30
2024-01-15T03:35:30.630Z,10.00
2024-01-15T03:38:01.581Z,8.60
2024-01-15T03:40:32.639Z,7.60
2024-01-15T03:43:03.641Z,10.10
2024-01-15T03:45:34.609Z,8.80
2024-01-15T03:50:35.059Z,6.60
2024-01-15T03:55:35.299Z,7.60
2024-01-15T03:58:06.307Z,8.70
2024-01-15T04:03:06.813Z,18.50
2024-01-15T04:08:07.655Z,19.80
2024-01-15T04:10:38.589Z,19.00
2024-01-15T04:13:09.493Z,12.60
2024-01-15T04:15:40.435Z,10.60
2024-01-15T04:18:11.478Z,9.80
2024-01-15T04:23:11.750Z,7.70
2024-01-15T04:25:44.020Z,8.10
2024-01-15T04:28:15.000Z,8.60
2024-01-15T04:30:46.085Z,8.60
2024-01-15T04:33:17.134Z,9.70
2024-01-15T04:35:48.133Z,9.60
2024-01-15T04:38:19.071Z,8.40
2024-01-15T04:40:50.056Z,7.40
2024-01-15T04:45:50.303Z,7.10
2024-01-15T04:50:50.631Z,5.90
2024-01-15T04:55:50.808Z,5.60
2024-01-15T04:58:21.797Z,6.40
2024-01-15T05:00:52.914Z,7.90
2024-01-15T05:03:24.385Z,9.70
2024-01-15T05:05:55.779Z,17.40
2024-01-15T05:08:26.715Z,15.20
2024-01-15T05:10:57.685Z,12.30
2024-01-15T05:13:29.197Z,11.30
2024-01-15T05:16:00.391Z,10.00
2024-01-15T05:18:31.565Z,8.70
2024-01-15T05:21:02.725Z,7.50
2024-01-15T05:26:04.264Z,7.00
2024-01-15T05:28:35.181Z,7.40
2024-01-15T05:31:06.450Z,8.50
2024-01-15T05:33:37.549Z,8.00
2024-01-15T05:36:09.818Z,6.90
2024-01-15T05:38:40.971Z,7.10
2024-01-15T05:41:11.924Z,7.20
2024-01-15T05:43:42.839Z,6.30
2024-01-15T05:48:43.358Z,4.80
2024-01-15T05:51:14.576Z,6.00
2024-01-15T05:56:16.389Z,4.90
2024-01-15T06:01:16.712Z,4.40
2024-01-15T06:03:47.757Z,5.40
2024-01-15T06:08:48.241Z,5.20
2024-01-15T06:11:19.200Z,6.10
2024-01-15T06:13:50.107Z,9.90
2024-01-15T06:16:21.864Z,13.00
2024-01-15T06:18:52.915Z,10.30
2024-01-15T06:21:24.528Z,11.40
2024-01-15T06:23:57.551Z,7.50
2024-01-15T06:26:28.520Z,8.20
2024-01-15T06:28:59.455Z,10.20
2024-01-15T06:31:30.481Z,10.00
2024-01-15T06:34:02.459Z,7.40
2024-01-15T06:36:33.474Z,6.10
2024-01-15T06:41:33.682Z,6.10
2024-01-15T06:44:04.704Z,6.90
2024-01-15T06:49:05.009Z,6.20
2024-01-15T06:54:05.554Z,6.10
2024-01-15T06:56:36.546Z,6.00
2024-01-15T06:59:07.460Z,5.70
2024-01-15T07:01:38.456Z,6.90
2024-01-15T07:06:38.931Z,5.20
2024-01-15T07:09:10.480Z,6.80
2024-01-15T07:11:46.309Z,8.00
2024-01-15T07:14:17.246Z,9.60
2024-01-15T07:16:49.110Z,16.60
2024-01-15T07:19:20.172Z,13.10
2024-01-15T07:21:52.768Z,10.10
2024-01-15T07:24:25.146Z,9.30
2024-01-15T07:26:56.233Z,8.30
2024-01-15T07:31:56.807Z,9.10
2024-01-15T07:34:28.147Z,5.00
2024-01-15T07:36:59.352Z,5.90
2024-01-15T07:39:31.882Z,4.80
2024-01-15T07:42:02.982Z,5.30
2024-01-15T07:47:03.145Z,4.80
2024-01-15T07:49:34.180Z,5.70
2024-01-15T07:52:06.408Z,5.60
2024-01-15T07:54:37.343Z,7.00
2024-01-15T08:02:08.062Z,6.40
2024-01-15T08:07:09.997Z,15.90
2024-01-15T08:09:41.095Z,10.50
2024-01-15T08:12:12.943Z,13.30
2024-01-15T08:14:43.918Z,14.20
2024-01-15T08:19:44.656Z,12.20
2024-01-15T08:22:15.869Z,14.10
2024-01-15T08:27:17.911Z,13.40
2024-01-15T08:29:48.852Z,13.70
2024-01-15T08:34:50.651Z,15.30
2024-01-15T08:37:21.753Z,14.60
2024-01-15T08:39:52.736Z,16.30
2024-01-15T08:42:23.741Z,14.20
2024-01-15T08:44:54.700Z,15.80
2024-01-15T08:49:55.473Z,10.40
2024-01-15T08:52:26.444Z,13.40
2024-01-15T08:54:57.828Z,16.40
2024-01-15T08:57:28.960Z,15.10
2024-01-15T09:00:00.338Z,19.00
2024-01-15T09:02:31.304Z,18.00
2024-01-15T09:05:02.306Z,14.00
2024-01-15T09:07:33.421Z,16.20
2024-01-15T09:10:04.484Z,18.90
2024-01-15T09:12:35.438Z,19.10
2024-01-15T09:15:07.324Z,18.50
2024-01-15T09:17:38.469Z,19.10
2024-01-15T09:20:11.542Z,18.00
2024-01-15T09:22:43.868Z,18.30
2024-01-15T09:25:15.178Z,17.00
2024-01-15T09:27:46.241Z,18.30
2024-01-15T09:30:18.414Z,17.90
2024-01-15T09:32:49.915Z,18.10
2024-01-15T09:35:23.674Z,19.80
2024-01-15T09:37:56.079Z,17.60
2024-01-15T09:40:33.330Z,17.30
2024-01-15T09:43:05.127Z,16.10
2024-01-15T09:45:36.465Z,15.80
2024-01-15T09:48:09.174Z,16.20
2024-01-15T09:50:40.126Z,17.40
2024-01-15T09:53:11.224Z,15.80
2024-01-15T09:55:42.252Z,14.30
2024-01-15T09:58:14.211Z,15.00
2024-01-15T10:00:46.811Z,17.20
2024-01-15T10:03:17.986Z,16.90
2024-01-15T10:05:49.199Z,15.90
2024-01-15T10:08:20.695Z,16.20
2024-01-15T10:10:51.850Z,14.80
2024-01-15T10:13:23.672Z,15.00
2024-01-15T10:15:55.459Z,13.70
2024-01-15T10:18:26.686Z,13.20
2024-01-15T10:20:59.156Z,14.20
2024-01-15T10:23:30.947Z,15.90
2024-01-15T10:26:02.312Z,14.40
2024-01-15T10:28:33.733Z,18.00
2024-01-15T10:31:05.174Z,15.70
2024-01-15T10:33:36.361Z,15.60
2024-01-15T10:36:13.603Z,13.50
2024-01-15T10:38:46.111Z,12.40
2024-01-15T10:41:17.266Z,12.70
2024-01-15T10:43:48.264Z,13.10
2024-01-15T10:46:19.640Z,12.20
2024-01-15T10:48:50.709Z,11.80
2024-01-15T10:51:22.050Z,11.40
2024-01-15T10:53:53.369Z,11.40
2024-01-15T10:56:26.222Z,10.30
2024-01-15T10:59:00.783Z,9.30
2024-01-15T11:01:32.948Z,7.30
2024-01-15T11:04:04.473Z,8.10
2024-01-15T11:06:45.860Z,6.80
2024-01-15T11:09:18.946Z,7.00
2024-01-15T11:11:53.675Z,6.40
2024-01-15T11:14:45.092Z,6.20
2024-01-15T11:17:17.364Z,7.10
2024-01-15T11:19:52.316Z,6.40
2024-01-15T11:22:53.198Z,6.70
2024-01-15T11:25:24.223Z,6.20
2024-01-15T11:27:56.886Z,7.50
2024-01-15T11:30:30.071Z,6.20
2024-01-15T11:33:01.424Z,6.40
2024-01-15T11:35:52.266Z,7.40
2024-01-15T11:38:32.652Z,7.20
2024-01-15T11:41:15.651Z,6.60
2024-01-15T11:43:46.569Z,6.60
2024-01-15T11:46:20.944Z,6.40
2024-01-15T11:49:03.990Z,7.00
2024-01-15T11:51:36.071Z,6.80
2024-01-15T11:54:12.959Z,6.60
2024-01-15T11:56:44.043Z,6.40
2024-01-15T11:59:15.359Z,7.40
2024-01-15T12:01:46.619Z,8.30
2024-01-15T12:04:21.078Z,7.30
2024-01-15T12:06:52.190Z,6.90
2024-01-15T12:09:24.706Z,6.50
2024-01-15T12:12:07.003Z,5.80
2024-01-15T12:14:37.988Z,6.40
2024-01-15T12:17:09.298Z,6.80
2024-01-15T12:19:40.333Z,6.50
2024-01-15T12:22:11.664Z,6.10
2024-01-15T12:24:42.670Z,6.10
2024-01-15T12:27:13.659Z,6.80
2024-01-15T12:29:45.410Z,6.50
2024-01-15T12:32:17.637Z,6.50
2024-01-15T12:34:48.567Z,6.50
2024-01-15T12:37:21.918Z,6.40
2024-01-15T12:39:56.032Z,5.40
2024-01-15T12:42:27.499Z,6.20
2024-01-15T12:44:59.437Z,6.20
2024-01-15T12:47:30.542Z,6.60
2024-01-15T12:50:10.032Z,5.90
2024-01-15T12:52:48.190Z,5.90
2024-01-15T12:55:19.666Z,6.10
2024-01-15T12:57:53.859Z,5.80
2024-01-15T13:00:27.021Z,6.50
2024-01-15T13:02:59.235Z,6.00
2024-01-15T13:05:31.712Z,6.20
2024-01-15T13:08:02.845Z,5.80
2024-01-15T13:10:33.960Z,5.80
2024-01-15T13:13:06.151Z,5.90
2024-01-15T13:15:37.533Z,6.60
2024-01-15T13:18:10.034Z,7.10
2024-01-15T13:20:41.352Z,6.30
2024-01-15T13:23:12.823Z,6.80
2024-01-15T13:25:43.776Z,6.30
2024-01-15T13:28:14.723Z,7.80
2024-01-15T13:30:45.995Z,7.20
2024-01-15T13:33:17.306Z,6.60
2024-01-15T13:35:51.353Z,6.20
2024-01-15T13:38:22.266Z,7.20
2024-01-15T13:40:53.309Z,7.00
2024-01-15T13:43:25.269Z,7.10
2024-01-15T13:45:56.498Z,6.90
2024-01-15T13:48:27.546Z,8.60
2024-01-15T13:50:58.617Z,7.30
2024-01-15T13:53:30.946Z,7.30
2024-01-15T13:56:02.110Z,7.60
2024-01-15T13:58:33.985Z,7.30
2024-01-15T14:01:05.646Z,6.60
2024-01-15T14:03:36.766Z,7.10
2024-01-15T14:06:10.107Z,6.70
2024-01-15T14:08:41.152Z,7.10
2024-01-15T14:11:12.540Z,7.10
2024-01-15T14:13:43.808Z,6.00
2024-01-15T14:16:14.769Z,6.50
2024-01-15T14:18:45.820Z,6.40
2024-01-15T14:21:16.955Z,6.50
2024-01-15T14:23:47.962Z,6.30
2024-01-15T14:26:18.925Z,5.70
2024-01-15T14:28:51.994Z,6.90
2024-01-15T14:31:26.236Z,5.20
2024-01-15T14:33:57.617Z,5.50
2024-01-15T14:36:28.557Z,7.30
2024-01-15T14:38:59.602Z,6.60
2024-01-15T14:41:30.636Z,5.70
2024-01-15T14:44:01.541Z,5.80
2024-01-15T14:46:32.832Z,6.10
2024-01-15T14:49:03.879Z,5.20
2024-01-15T14:51:34.878Z,5.10
2024-01-15T14:54:06.211Z,6.70
2024-01-15T14:56:37.131Z,6.20
2024-01-15T14:59:08.119Z,6.20
2024-01-15T15:01:39.224Z,6.00
2024-01-15T15:04:11.700Z,6.10
2024-01-15T15:06:43.102Z,5.90
2024-01-15T15:09:14.223Z,5.90
2024-01-15T15:11:45.510Z,8.30
2024-01-15T15:14:16.545Z,6.20
2024-01-15T15:16:47.967Z,6.50
2024-01-15T15:19:20.429Z,7.10
2024-01-15T15:21:51.621Z,6.20
2024-01-15T15:24:22.591Z,6.80
2024-01-15T15:26:55.570Z,8.30
2024-01-15T15:29:26.734Z,7.70
2024-01-15T15:31:57.634Z,6.60
2024-01-15T15:34:28.592Z,7.40
2024-01-15T15:36:59.796Z,7.40
2024-01-15T15:39:32.208Z,6.30
2024-01-15T15:42:03.759Z,7.40
2024-01-15T15:44:34.879Z,6.80
2024-01-15T15:47:05.985Z,6.60
2024-01-15T15:49:37.501Z,6.70
2024-01-15T15:52:09.129Z,7.40
2024-01-15T15:54:40.114Z,7.60
2024-01-15T15:57:11.140Z,7.70
2024-01-15T15:59:42.144Z,7.70
2024-01-15T16:02:13.162Z,7.30
2024-01-15T16:04:44.072Z,8.90
2024-01-15T16:07:15.744Z,7.10
2024-01-15T16:09:46.710Z,7.70
2024-01-15T16:12:17.665Z,7.20
2024-01-15T16:14:48.771Z,7.60
2024-01-15T16:23:15.295Z,7.10
2024-01-15T16:23:29.403Z,7.30
2024-01-15T16:23:51.754Z,8.30
2024-01-15T16:25:54.549Z,8.50
2024-01-15T16:28:25.824Z,8.70
2024-01-15T16:31:02.213Z,8.80
2024-01-15T16:33:35.890Z,8.90
2024-01-15T16:36:07.190Z,9.10
2024-01-15T16:38:38.300Z,8.40
2024-01-15T16:41:09.564Z,8.00
2024-01-15T16:43:40.414Z,7.30
2024-01-15T16:46:12.290Z,8.00
2024-01-15T16:48:43.220Z,11.00
2024-01-15T16:51:15.450Z,9.50
2024-01-15T16:53:46.355Z,9.30
2024-01-15T16:56:17.404Z,10.10
2024-01-15T16:58:48.327Z,10.60
2024-01-15T17:01:19.230Z,10.20
2024-01-15T17:03:50.580Z,11.40
2024-01-15T17:06:21.525Z,9.80
2024-01-15T17:08:52.711Z,11.90
2024-01-15T17:11:23.727Z,10.80
2024-01-15T17:13:54.855Z,9.60
2024-01-15T17:16:25.731Z,10.40
2024-01-15T17:18:56.663Z,9.70
2024-01-15T17:21:27.610Z,10.70
2024-01-15T17:23:59.200Z,9.20
2024-01-15T17:26:30.184Z,11.10
2024-01-15T17:29:01.343Z,12.30
2024-01-15T17:31:32.262Z,10.30
2024-01-15T17:34:03.618Z,10.20
2024-01-15T17:36:34.556Z,10.20
2024-01-15T17:39:07.546Z,10.30
2024-01-15T17:41:38.618Z,13.10
2024-01-15T17:44:09.554Z,13.10
2024-01-15T17:46:40.543Z,10.70
2024-01-15T17:49:11.505Z,9.90
2024-01-15T17:51:42.451Z,9.00
2024-01-15T17:54:13.363Z,8.30
2024-01-15T17:56:44.643Z,9.00
2024-01-15T17:59:15.694Z,9.10
2024-01-15T18:01:48.378Z,8.60
2024-01-15T18:04:20.910Z,8.70
2024-01-15T18:06:53.091Z,9.90
2024-01-15T18:09:23.986Z,9.70
2024-01-15T18:12:00.648Z,8.60
2024-01-15T18:14:31.752Z,8.70
2024-01-15T18:17:02.766Z,9.10
2024-01-15T18:19:33.744Z,8.50
2024-01-15T18:22:05.977Z,8.60
2024-01-15T18:24:37.515Z,8.60
2024-01-15T18:27:09.620Z,6.90
2024-01-15T18:29:40.834Z,7.60
2024-01-15T18:32:12.420Z,6.50
2024-01-15T18:34:44.203Z,8.40
2024-01-15T18:37:15.746Z,7.90
2024-01-15T18:39:47.950Z,8.70
2024-01-15T18:42:19.195Z,8.30
2024-01-15T18:44:50.531Z,8.20
2024-01-15T18:47:21.953Z,8.20
2024-01-15T18:49:53.069Z,8.30
2024-01-15T18:52:24.030Z,8.40
2024-01-15T18:54:55.047Z,9.60
2024-01-15T18:57:26.028Z,10.30
2024-01-15T18:59:56.942Z,10.50
2024-01-15T19:02:30.540Z,9.60
2024-01-15T19:05:01.665Z,8.70
2024-01-15T19:07:34.099Z,9.50
2024-01-15T19:10:06.305Z,7.70
2024-01-15T19:12:37.303Z,9.80
2024-01-15T19:15:10.267Z,9.90
2024-01-15T19:17:41.270Z,9.20
2024-01-15T19:20:14.936Z,8.90
2024-01-15T19:22:46.028Z,8.10
2024-01-15T19:25:17.075Z,9.00
2024-01-15T19:27:48.173Z,9.70
2024-01-15T19:30:19.788Z,9.20
2024-01-15T19:32:50.852Z,9.30
2024-01-15T19:35:21.882Z,9.70
2024-01-15T19:37:52.813Z,8.20
2024-01-15T19:40:23.913Z,9.40
2024-01-15T19:42:54.802Z,9.90
2024-01-15T19:45:25.700Z,8.00
2024-01-15T19:47:57.131Z,9.20
2024-01-15T19:50:28.354Z,8.40
2024-01-15T19:52:59.295Z,9.20
2024-01-15T19:55:30.290Z,8.00
2024-01-15T19:58:01.230Z,9.20
2024-01-15T20:00:32.218Z,8.80
2024-01-15T20:03:03.796Z,8.90
2024-01-15T20:05:34.849Z,7.80
2024-01-15T20:08:06.306Z,8.60
2024-01-15T20:10:39.593Z,8.70
2024-01-15T20:13:10.486Z,7.60
2024-01-15T20:15:41.578Z,9.50
2024-01-15T20:18:12.698Z,9.30
2024-01-15T20:20:43.950Z,9.30
2024-01-15T20:23:14.931Z,8.80
2024-01-15T20:25:45.875Z,8.90
2024-01-15T20:28:16.760Z,8.90
2024-01-15T20:30:47.912Z,7.10
2024-01-15T20:33:20.052Z,7.80
2024-01-15T20:35:52.179Z,6.60
2024-01-15T20:38:23.204Z,7.80
2024-01-15T20:40:54.074Z,7.90
2024-01-15T20:45:55.986Z,6.40
2024-01-15T20:48:28.715Z,6.90
2024-01-15T20:51:00.173Z,6.60
2024-01-15T20:53:32.998Z,6.60
2024-01-15T20:56:04.123Z,7.50
2024-01-15T20:58:36.075Z,8.20
2024-01-15T21:01:09.923Z,6.90
2024-01-15T21:03:40.883Z,6.60
2024-01-15T21:06:12.260Z,6.30
2024-01-15T21:08:44.564Z,6.90
2024-01-15T21:11:15.996Z,6.10
2024-01-15T21:13:46.939Z,7.70
2024-01-15T21:18:48.322Z,5.80
2024-01-15T21:21:19.978Z,6.00
2024-01-15T21:23:50.912Z,8.20
2024-01-15T21:26:21.884Z,9.50
2024-01-15T21:28:52.852Z,10.40
2024-01-15T21:33:53.137Z,1.90
2024-01-15T21:36:24.091Z,1.10
2024-01-15T21:38:55.002Z,1.00
2024-01-15T21:41:26.060Z,1.70
2024-01-15T21:43:57.180Z,1.10
2024-01-15T21:46:28.443Z,1.40
2024-01-15T21:48:59.868Z,1.20
2024-01-15T21:51:30.841Z,0.60
2024-01-15T21:54:02.945Z,1.20
2024-01-15T21:56:34.138Z,0.50
2024-01-15T21:59:06.409Z,0.50
2024-01-15T22:01:37.404Z,0.40
2024-01-15T22:04:08.526Z,0.80
2024-01-15T22:06:39.643Z,1.10
2024-01-15T22:09:10.677Z,0.70
2024-01-15T22:11:44.675Z,1.00
2024-01-15T22:14:16.543Z,0.50
2024-01-15T22:16:47.936Z,0.40
2024-01-15T22:19:19.114Z,0.60
2024-01-15T22:21:50.742Z,0.70
2024-01-15T22:24:21.594Z,0.70
2024-01-15T22:31:51.454Z,1.20
2024-01-15T22:34:22.437Z,0.70
2024-01-15T22:36:53.770Z,1.00
2024-01-15T22:39:24.711Z,0.80
2024-01-15T22:41:55.623Z,0.70
2024-01-15T22:44:26.671Z,1.20
2024-01-15T22:46:57.713Z,0.60
2024-01-15T22:49:28.674Z,0.40
2024-01-15T22:51:59.571Z,0.50
2024-01-15T22:54:30.520Z,0.30
2024-01-15T22:57:01.404Z,0.40
2024-01-15T22:59:32.341Z,0.50
2024-01-15T23:02:03.387Z,3.30
2024-01-15T23:04:34.477Z,0.70
2024-01-15T23:07:06.366Z,0.80
2024-01-15T23:09:37.653Z,0.40
2024-01-15T23:12:10.009Z,0.30
2024-01-15T23:14:41.032Z,1.10
2024-01-15T23:17:12.191Z,0.80
2024-01-15T23:19:43.136Z,0.70
2024-01-15T23:22:14.079Z,1.60
2024-01-15T23:24:45.108Z,1.30
2024-01-15T23:27:16.292Z,1.20
2024-01-15T23:29:47.192Z,1.00
2024-01-15T23:32:18.181Z,0.70
2024-01-15T23:34:49.627Z,1.30
2024-01-15T23:37:20.621Z,0.50
2024-01-15T23:39:51.633Z,1.00
2024-01-15T23:42:22.924Z,0.50
2024-01-15T23:44:53.804Z,0.60
2024-01-15T23:47:24.873Z,0.80
2024-01-15T23:49:56.155Z,0.60
2024-01-15T23:52:27.248Z,0.60
2024-01-15T23:54:58.127Z,0.80
2024-01-15T23:57:29.050Z,0.70
2024-01-15T23:59:59.972Z,0.70
